Time;durP1;ratioP1;P1;durP2;ratioP2;P2;SDS_P1;SDS_P2;PMS_P1;PMS_P2;Temp;Humidity;BMP_temperature;BMP_pressure;BME280_temperature;BME280_humidity;BME280_pressure;Samples;Min_cycle;Max_cycle;Signal;HPM_P1;HPM_P2
2024/04/25 00:00:14;;;;;;;13.80;2.03;;;7.00;99.90;;;;;;5427124;26;20231;-85
2024/04/25 00:02:39;;;;;;;17.60;2.50;;;7.00;99.90;;;;;;5459163;26;20205;-84
2024/04/25 00:05:05;;;;;;;15.93;2.00;;;7.00;99.90;;;;;;5459086;26;20255;-84
2024/04/25 00:07:31;;;;;;;13.73;1.70;;;7.00;99.90;;;;;;5459186;26;20279;-83
2024/04/25 00:09:56;;;;;;;16.40;2.20;;;7.00;99.90;;;;;;5427397;26;20439;-83
2024/04/25 00:12:22;;;;;;;14.70;1.63;;;7.10;98.80;;;;;;5427143;26;20230;-84
2024/04/25 00:14:48;;;;;;;18.43;1.80;;;7.10;99.20;;;;;;5427157;26;20214;-84
2024/04/25 00:17:13;;;;;;;23.97;2.37;;;7.10;99.20;;;;;;5459255;26;20256;-84
2024/04/25 00:19:39;;;;;;;18.77;2.07;;;7.00;99.90;;;;;;5459464;26;20308;-84
2024/04/25 00:22:05;;;;;;;14.20;1.90;;;7.00;99.90;;;;;;5427114;26;20230;-83
2024/04/25 00:24:31;;;;;;;15.50;2.37;;;7.00;99.90;;;;;;5427073;26;20218;-84
2024/04/25 00:26:56;;;;;;;14.47;1.87;;;7.00;99.90;;;;;;5458971;26;20777;-84
2024/04/25 00:29:22;;;;;;;16.03;2.83;;;7.00;99.90;;;;;;5426984;26;20215;-83
2024/04/25 00:31:48;;;;;;;13.50;1.77;;;7.00;99.90;;;;;;5427150;26;20463;-85
2024/04/25 00:34:13;;;;;;;16.60;2.07;;;7.00;99.10;;;;;;5427620;26;20303;-83
2024/04/25 00:36:39;;;;;;;15.20;1.90;;;6.90;99.90;;;;;;5459354;26;20223;-84
2024/04/25 00:39:05;;;;;;;14.80;1.60;;;7.00;99.90;;;;;;5458510;26;20227;-83
2024/04/25 00:41:30;;;;;;;15.90;1.77;;;7.00;99.00;;;;;;5458917;26;20218;-84
2024/04/25 00:43:56;;;;;;;15.73;2.20;;;7.10;98.60;;;;;;5458713;26;20206;-84
2024/04/25 00:46:21;;;;;;;16.20;2.60;;;7.00;97.10;;;;;;5458961;26;20252;-84
2024/04/25 00:48:50;;;;;;;22.77;2.77;;;7.00;98.00;;;;;;5458769;26;20562;-85
2024/04/25 00:51:17;;;;;;;16.90;2.20;;;7.00;96.40;;;;;;5458481;26;20283;-83
2024/04/25 00:53:46;;;;;;;16.85;2.40;;;7.00;98.20;;;;;;5458529;26;20686;-83
2024/04/25 00:56:13;;;;;;;17.77;2.83;;;7.00;97.80;;;;;;5426650;26;20299;-85
2024/04/25 00:58:40;;;;;;;14.05;1.85;;;6.90;98.00;;;;;;5426688;26;20211;-84
2024/04/25 01:01:07;;;;;;;22.45;4.30;;;6.90;98.50;;;;;;5426587;26;20231;-83
2024/04/25 01:03:34;;;;;;;17.83;2.28;;;6.90;98.80;;;;;;5426850;26;20226;-84
2024/04/25 01:06:02;;;;;;;18.40;2.55;;;6.80;99.90;;;;;;5458493;26;20219;-84
2024/04/25 01:08:28;;;;;;;16.63;3.05;;;6.80;99.90;;;;;;5426475;26;20682;-84
2024/04/25 01:10:54;;;;;;;22.00;3.30;;;6.80;99.90;;;;;;5456442;26;20283;-83
2024/04/25 01:13:20;;;;;;;15.10;3.03;;;6.80;99.90;;;;;;5458221;26;20439;-83
2024/04/25 01:15:45;;;;;;;20.90;3.00;;;6.80;99.90;;;;;;5426783;26;20217;-83
2024/04/25 01:18:14;;;;;;;16.77;3.10;;;6.70;99.90;;;;;;5458026;26;20222;-83
2024/04/25 01:20:40;;;;;;;18.13;3.38;;;6.70;99.90;;;;;;5457956;26;20217;-83
2024/04/25 01:23:10;;;;;;;23.73;3.17;;;6.70;99.90;;;;;;5425834;26;20257;-83
2024/04/25 01:25:37;;;;;;;14.88;2.53;;;6.70;99.90;;;;;;5457776;26;20255;-83
2024/04/25 01:28:05;;;;;;;20.25;3.50;;;6.70;99.90;;;;;;5425994;26;20252;-84
2024/04/25 01:30:33;;;;;;;20.15;2.83;;;6.50;99.90;;;;;;5457875;26;20217;-84
2024/04/25 01:32:59;;;;;;;17.70;3.20;;;6.60;99.90;;;;;;5457589;26;20639;-83
2024/04/25 01:35:29;;;;;;;16.92;4.07;;;6.60;99.90;;;;;;5457665;26;20321;-84
2024/04/25 01:37:59;;;;;;;17.45;2.95;;;6.60;99.90;;;;;;5458305;26;20284;-83
2024/04/25 01:40:25;;;;;;;19.08;3.13;;;6.60;99.90;;;;;;5457370;26;20233;-83
2024/04/25 01:42:50;;;;;;;23.55;3.08;;;6.60;99.90;;;;;;5457904;26;20253;-83
2024/04/25 01:45:16;;;;;;;20.47;3.10;;;6.50;99.90;;;;;;5426528;26;20283;-84
2024/04/25 01:47:42;;;;;;;17.63;2.93;;;6.60;99.90;;;;;;5457817;26;20209;-83
2024/04/25 01:50:07;;;;;;;26.10;3.60;;;6.60;99.90;;;;;;5457345;26;20209;-84
2024/04/25 01:52:33;;;;;;;16.50;4.57;;;6.50;99.90;;;;;;5457665;26;20252;-85
2024/04/25 01:54:59;;;;;;;20.83;5.57;;;6.50;99.90;;;;;;5457999;26;20256;-86
2024/04/25 01:57:24;;;;;;;20.93;2.60;;;6.40;99.90;;;;;;5458305;26;20309;-83
2024/04/25 01:59:50;;;;;;;15.10;2.50;;;6.40;99.90;;;;;;5458414;26;20174;-83
2024/04/25 02:02:16;;;;;;;16.93;3.10;;;6.40;99.90;;;;;;5459053;26;20206;-85
2024/04/25 02:04:41;;;;;;;15.87;3.10;;;6.50;99.90;;;;;;5427419;26;20586;-83
2024/04/25 02:07:10;;;;;;;17.30;3.23;;;6.40;99.90;;;;;;5460838;26;20260;-84
2024/04/25 02:09:36;;;;;;;21.02;3.33;;;6.40;99.90;;;;;;5428643;26;20313;-83
2024/04/25 02:12:02;;;;;;;16.35;2.45;;;6.40;99.90;;;;;;5461442;26;20313;-83
2024/04/25 02:14:28;;;;;;;15.27;2.80;;;6.40;99.90;;;;;;5460352;26;20217;-83
2024/04/25 02:16:54;;;;;;;17.97;3.20;;;6.40;99.90;;;;;;5428705;26;20439;-83
2024/04/25 02:19:19;;;;;;;16.50;2.67;;;6.40;99.90;;;;;;5427600;26;20587;-83
2024/04/25 02:27:17;;;;;;;15.70;3.65;;;6.50;99.90;;;;;;5460869;26;20200;-83
2024/04/25 02:29:43;;;;;;;24.92;3.88;;;6.40;99.90;;;;;;5458830;26;20205;-83
2024/04/25 02:32:09;;;;;;;23.17;4.50;;;6.50;99.90;;;;;;5426350;26;20251;-83
2024/04/25 02:34:34;;;;;;;22.67;4.70;;;6.40;99.90;;;;;;5426889;26;20252;-84
2024/04/25 02:37:00;;;;;;;19.83;4.63;;;6.40;99.90;;;;;;5458686;26;20225;-84
2024/04/25 02:39:26;;;;;;;20.23;4.53;;;6.40;99.90;;;;;;5459254;26;20206;-83
2024/04/25 02:41:51;;;;;;;18.33;3.90;;;6.40;99.90;;;;;;5459291;26;20225;-83
2024/04/25 02:44:20;;;;;;;19.90;5.07;;;6.40;99.90;;;;;;5428112;26;20244;-83
2024/04/25 02:46:48;;;;;;;17.70;4.70;;;6.30;99.90;;;;;;5459346;26;20251;-83
2024/04/25 02:49:17;;;;;;;19.30;4.28;;;6.30;99.90;;;;;;5426731;26;20754;-83
2024/04/25 02:51:42;;;;;;;20.05;4.50;;;6.30;99.90;;;;;;5396851;26;20260;-83
2024/04/25 02:54:08;;;;;;;19.40;4.20;;;6.30;99.90;;;;;;5425487;26;20213;-83
2024/04/25 02:56:34;;;;;;;16.50;3.80;;;6.40;99.90;;;;;;5456972;26;20250;-83
2024/04/25 02:59:00;;;;;;;17.77;5.10;;;6.30;99.90;;;;;;5457345;26;20564;-83
2024/04/25 03:01:28;;;;;;;20.33;5.30;;;6.40;99.90;;;;;;5427376;26;20454;-83
2024/04/25 03:03:55;;;;;;;18.40;4.15;;;6.40;99.90;;;;;;5458316;26;20206;-84
2024/04/25 03:06:21;;;;;;;18.92;4.07;;;6.40;99.90;;;;;;5460238;26;20255;-83
2024/04/25 03:08:47;;;;;;;22.10;4.10;;;6.40;99.90;;;;;;5458866;26;20540;-83
2024/04/25 03:11:13;;;;;;;19.03;4.40;;;6.40;99.90;;;;;;5458753;26;20249;-83
2024/04/25 03:13:38;;;;;;;17.30;3.90;;;6.40;99.90;;;;;;5458250;26;20292;-83
2024/04/25 03:16:05;;;;;;;17.53;4.07;;;6.30;99.90;;;;;;5424992;26;20241;-83
2024/04/25 03:18:31;;;;;;;27.85;3.90;;;6.30;99.90;;;;;;5425217;26;20301;-83
2024/04/25 03:21:07;;;;;;;16.77;3.70;;;6.40;99.90;;;;;;5425142;26;20229;-83
2024/04/25 03:23:38;;;;;;;17.20;3.47;;;6.30;99.90;;;;;;5457500;26;20278;-83
2024/04/25 03:26:04;;;;;;;21.65;4.40;;;6.30;99.90;;;;;;5425017;26;20260;-83
2024/04/25 03:28:35;;;;;;;22.42;3.40;;;6.20;99.90;;;;;;5425152;26;20582;-83
2024/04/25 03:31:01;;;;;;;19.27;4.10;;;6.20;99.90;;;;;;5456889;26;20230;-83
2024/04/25 03:33:27;;;;;;;16.88;3.42;;;6.20;99.90;;;;;;5457243;26;20575;-83
2024/04/25 03:35:53;;;;;;;21.63;3.70;;;6.10;99.90;;;;;;5428873;26;20224;-83
2024/04/25 03:38:19;;;;;;;20.20;3.25;;;6.10;99.90;;;;;;5428640;26;20225;-83
2024/04/25 03:40:45;;;;;;;17.40;4.20;;;6.10;99.90;;;;;;5429411;26;20252;-83
2024/04/25 03:43:10;;;;;;;16.33;3.80;;;6.20;99.90;;;;;;5428390;26;20221;-84
2024/04/25 03:45:36;;;;;;;20.50;4.10;;;6.20;99.90;;;;;;5459883;26;20209;-83
2024/04/25 03:48:02;;;;;;;27.97;3.77;;;6.10;99.90;;;;;;5460035;26;20269;-83
2024/04/25 03:50:29;;;;;;;20.40;3.67;;;6.10;99.90;;;;;;5428766;26;20518;-83
2024/04/25 03:52:55;;;;;;;23.00;3.92;;;6.00;99.90;;;;;;5428110;26;20447;-83
2024/04/25 03:55:29;;;;;;;20.57;4.20;;;6.00;99.90;;;;;;5460846;26;20686;-83
2024/04/25 03:57:57;;;;;;;19.02;4.10;;;6.10;99.90;;;;;;5428373;26;20260;-83
2024/04/25 04:00:23;;;;;;;20.95;3.63;;;6.10;99.90;;;;;;5459817;26;20719;-83
2024/04/25 04:02:49;;;;;;;17.93;3.57;;;6.00;99.90;;;;;;5460242;26;20241;-83
2024/04/25 04:05:16;;;;;;;21.77;4.33;;;6.00;99.90;;;;;;5459822;26;20206;-83
2024/04/25 04:07:43;;;;;;;15.95;3.33;;;6.00;99.90;;;;;;5427354;26;20619;-83
2024/04/25 04:10:09;;;;;;;18.95;4.75;;;5.90;99.90;;;;;;5427553;26;20226;-83
2024/04/25 04:12:35;;;;;;;28.30;4.27;;;6.00;99.90;;;;;;5459682;26;20205;-83
2024/04/25 04:15:00;;;;;;;17.40;4.03;;;5.90;99.90;;;;;;5459312;26;20307;-83
2024/04/25 04:17:30;;;;;;;15.80;3.30;;;5.90;99.90;;;;;;5459337;26;20569;-83
2024/04/25 04:19:58;;;;;;;18.50;4.45;;;5.80;99.90;;;;;;5459596;26;20439;-83
2024/04/25 04:22:24;;;;;;;18.08;4.75;;;5.70;99.90;;;;;;5459555;26;20265;-83
2024/04/25 04:24:49;;;;;;;19.47;4.30;;;5.70;99.90;;;;;;5427313;26;20221;-82
2024/04/25 04:27:15;;;;;;;20.63;3.57;;;5.70;99.90;;;;;;5459164;26;20206;-83
2024/04/25 04:29:41;;;;;;;19.37;3.10;;;5.70;99.90;;;;;;5459004;26;20231;-83
2024/04/25 04:32:06;;;;;;;21.33;3.40;;;5.80;99.90;;;;;;5459297;26;20217;-83
2024/04/25 04:34:32;;;;;;;19.67;4.10;;;5.70;99.90;;;;;;5459535;26;20209;-82
2024/04/25 04:39:40;;;;;;;17.08;3.65;;;5.50;99.90;;;;;;5491886;26;20260;-83
2024/04/25 04:42:20;;;;;;;17.65;3.78;;;5.50;99.90;;;;;;5496417;26;20258;-83
2024/04/25 04:44:48;;;;;;;18.50;4.72;;;5.50;99.90;;;;;;5463477;26;20212;-83
2024/04/25 04:47:14;;;;;;;24.27;4.07;;;5.50;99.90;;;;;;5463446;26;20216;-83
2024/04/25 04:49:51;;;;;;;20.17;4.30;;;5.60;99.90;;;;;;5462956;26;20534;-83
2024/04/25 04:52:25;;;;;;;15.60;3.75;;;5.70;99.90;;;;;;5463193;26;20535;-83
2024/04/25 04:55:08;;;;;;;18.63;4.80;;;5.70;99.90;;;;;;5495230;26;20247;-82
2024/04/25 04:57:43;;;;;;;22.00;4.15;;;5.70;99.90;;;;;;5463636;26;20537;-83
2024/04/25 05:00:14;;;;;;;18.42;3.70;;;5.80;99.90;;;;;;5463608;26;20254;-83
2024/04/25 05:02:45;;;;;;;16.02;3.85;;;5.70;99.90;;;;;;5463212;26;20209;-82
2024/04/25 05:05:18;;;;;;;18.60;3.92;;;5.80;99.90;;;;;;5463905;26;20264;-83
2024/04/25 05:07:44;;;;;;;18.40;4.63;;;5.80;99.90;;;;;;5495806;26;20239;-83
2024/04/25 05:10:10;;;;;;;16.87;3.43;;;5.80;99.90;;;;;;5496052;26;20216;-82
2024/04/25 05:12:41;;;;;;;25.70;4.83;;;5.90;99.90;;;;;;5495937;26;20208;-83
2024/04/25 05:15:06;;;;;;;17.75;4.03;;;5.90;99.90;;;;;;5465053;26;20209;-84
2024/04/25 05:17:44;;;;;;;27.60;4.20;;;6.00;99.90;;;;;;5464051;26;20213;-86
2024/04/25 05:20:10;;;;;;;20.20;4.30;;;5.90;99.90;;;;;;5496485;26;20216;-84
2024/04/25 05:22:39;;;;;;;19.17;4.38;;;6.00;99.90;;;;;;5495264;26;20531;-83
2024/04/25 05:25:08;;;;;;;17.77;4.28;;;6.00;99.90;;;;;;5495088;26;20204;-84
2024/04/25 05:27:37;;;;;;;19.25;3.88;;;6.00;99.90;;;;;;5495232;26;20208;-84
2024/04/25 05:30:04;;;;;;;18.48;4.32;;;6.10;99.90;;;;;;5494817;26;20208;-83
2024/04/25 05:32:30;;;;;;;21.58;4.40;;;6.20;99.90;;;;;;5495031;26;20208;-83
2024/04/25 05:34:57;;;;;;;20.33;4.53;;;6.20;99.90;;;;;;5462828;26;20212;-84
2024/04/25 05:37:26;;;;;;;17.23;4.35;;;6.20;99.90;;;;;;5495808;26;20216;-85
2024/04/25 05:39:52;;;;;;;19.13;3.92;;;6.30;99.90;;;;;;5463157;26;20208;-84
2024/04/25 05:42:18;;;;;;;17.52;3.97;;;6.20;99.90;;;;;;5495015;26;20318;-83
2024/04/25 05:44:47;;;;;;;19.33;3.87;;;6.10;99.90;;;;;;5462165;26;20263;-83
2024/04/25 05:47:17;;;;;;;16.23;4.30;;;6.10;99.90;;;;;;5461926;26;20216;-83
2024/04/25 05:49:45;;;;;;;16.15;3.42;;;6.10;99.90;;;;;;5462250;26;20224;-83
2024/04/25 05:52:12;;;;;;;16.25;3.70;;;6.10;99.90;;;;;;5494409;26;20325;-83
2024/04/25 05:54:37;;;;;;;18.73;3.58;;;6.00;99.90;;;;;;5494074;26;20208;-84
2024/04/25 05:57:03;;;;;;;22.17;4.37;;;6.00;99.90;;;;;;5493427;26;20254;-83
2024/04/25 05:59:29;;;;;;;19.37;4.13;;;6.10;99.90;;;;;;5461935;26;20220;-83
2024/04/25 06:01:54;;;;;;;19.63;4.60;;;6.20;99.90;;;;;;5493883;26;20268;-83
2024/04/25 06:04:20;;;;;;;17.63;4.50;;;6.30;99.90;;;;;;5494467;26;20204;-83
2024/04/25 06:06:48;;;;;;;25.80;4.87;;;6.20;99.90;;;;;;5494081;26;20255;-82
2024/04/25 06:09:14;;;;;;;23.02;4.72;;;6.30;99.90;;;;;;5461762;26;20217;-83
2024/04/25 06:11:40;;;;;;;19.03;4.87;;;6.30;99.90;;;;;;5494156;26;20252;-83
2024/04/25 06:14:06;;;;;;;24.95;5.95;;;6.30;99.90;;;;;;5462126;26;20267;-83
2024/04/25 06:16:32;;;;;;;20.73;5.00;;;6.40;99.90;;;;;;5493930;26;20209;-83
2024/04/25 06:18:57;;;;;;;25.30;5.50;;;6.50;99.90;;;;;;5494175;26;20209;-83
2024/04/25 06:21:23;;;;;;;19.43;6.17;;;6.50;99.90;;;;;;5494028;26;20308;-83
2024/04/25 06:23:49;;;;;;;19.93;5.10;;;6.50;99.90;;;;;;5493706;26;20221;-83
2024/04/25 06:26:14;;;;;;;25.40;5.70;;;6.50;99.90;;;;;;5494481;26;20217;-83
2024/04/25 06:28:40;;;;;;;21.73;7.00;;;6.50;99.90;;;;;;5494077;26;20255;-83
2024/04/25 06:31:06;;;;;;;22.23;6.10;;;6.50;99.90;;;;;;5494076;26;20322;-83
2024/04/25 06:33:31;;;;;;;21.37;5.60;;;6.50;99.90;;;;;;5462363;26;20212;-85
2024/04/25 06:35:57;;;;;;;25.73;6.10;;;6.60;99.90;;;;;;5494240;26;20566;-84
2024/04/25 06:38:23;;;;;;;19.97;6.80;;;6.70;99.90;;;;;;5494614;26;20224;-84
2024/04/25 06:40:51;;;;;;;21.10;6.40;;;6.80;99.90;;;;;;5462003;26;20661;-84
2024/04/25 06:43:17;;;;;;;21.75;7.57;;;6.80;99.90;;;;;;5494511;26;20213;-85
2024/04/25 06:45:43;;;;;;;22.50;6.30;;;6.90;99.90;;;;;;5462185;26;20214;-83
2024/04/25 06:48:10;;;;;;;21.40;7.03;;;7.00;99.90;;;;;;5493702;26;20257;-84
2024/04/25 06:50:37;;;;;;;23.80;7.07;;;6.90;99.90;;;;;;5462011;26;20225;-84
2024/04/25 06:53:03;;;;;;;21.60;5.88;;;7.00;99.90;;;;;;5493906;26;20242;-84
2024/04/25 06:55:29;;;;;;;22.07;6.87;;;7.10;99.90;;;;;;5461845;26;20216;-84
2024/04/25 06:57:57;;;;;;;23.67;6.90;;;7.20;99.90;;;;;;5461397;26;20216;-84
2024/04/25 07:00:23;;;;;;;19.33;6.00;;;7.30;99.90;;;;;;5493736;26;20457;-83
2024/04/25 07:02:48;;;;;;;22.07;6.83;;;7.30;99.90;;;;;;5461192;26;20209;-84
2024/04/25 07:05:14;;;;;;;21.43;5.13;;;7.40;99.90;;;;;;5461956;26;20558;-84
2024/04/25 07:07:41;;;;;;;23.20;6.60;;;7.60;99.90;;;;;;5460938;26;20216;-83
2024/04/25 07:10:06;;;;;;;20.77;7.25;;;7.70;99.90;;;;;;5460446;26;20214;-85
2024/04/25 07:12:33;;;;;;;22.00;6.30;;;7.80;99.90;;;;;;5493673;26;20247;-84
2024/04/25 07:15:04;;;;;;;21.88;6.65;;;7.90;99.90;;;;;;5461519;26;20212;-83
2024/04/25 07:17:30;;;;;;;21.55;6.40;;;8.00;99.90;;;;;;5461340;26;20801;-85
2024/04/25 07:19:56;;;;;;;26.53;7.00;;;8.00;99.90;;;;;;5461459;26;20219;-85
2024/04/25 07:22:21;;;;;;;23.63;6.37;;;8.00;99.30;;;;;;5493482;26;20583;-83
2024/04/25 07:24:47;;;;;;;18.97;5.50;;;8.20;99.90;;;;;;5461192;26;20555;-85
2024/04/25 07:27:12;;;;;;;22.00;6.20;;;8.20;96.20;;;;;;5494020;26;20260;-83
2024/04/25 07:29:47;;;;;;;22.57;5.60;;;8.20;90.20;;;;;;5493626;26;20268;-83
2024/04/25 07:32:16;;;;;;;18.05;5.45;;;8.20;87.20;;;;;;5492823;26;20545;-83
2024/04/25 07:34:43;;;;;;;22.08;5.70;;;8.30;93.00;;;;;;5461451;26;20220;-85
2024/04/25 07:37:11;;;;;;;18.58;6.70;;;8.30;88.30;;;;;;5460888;26;20216;-84
2024/04/25 07:39:40;;;;;;;23.33;7.57;;;8.40;77.30;;;;;;5493360;26;20170;-85
2024/04/25 07:42:05;;;;;;;19.80;5.50;;;8.40;64.90;;;;;;5461304;26;20228;-83
2024/04/25 07:44:31;;;;;;;20.90;6.40;;;8.40;57.90;;;;;;5461726;26;20215;-85
2024/04/25 07:46:56;;;;;;;21.13;6.00;;;8.40;51.30;;;;;;5461052;26;20243;-84
2024/04/25 07:49:22;;;;;;;21.73;6.73;;;8.30;52.40;;;;;;5493242;26;20208;-85
2024/04/25 07:51:48;;;;;;;19.70;6.00;;;8.40;68.20;;;;;;5493237;26;20220;-84
2024/04/25 07:54:13;;;;;;;17.97;5.03;;;8.40;47.00;;;;;;5493323;26;20216;-85
2024/04/25 07:56:39;;;;;;;20.97;6.07;;;8.40;50.00;;;;;;5492815;26;20216;-85
2024/04/25 07:59:05;;;;;;;21.67;6.30;;;8.50;50.00;;;;;;5461508;26;20212;-83
2024/04/25 08:01:31;;;;;;;23.33;6.40;;;8.60;55.70;;;;;;5494084;26;20507;-85
2024/04/25 08:03:58;;;;;;;22.93;5.50;;;8.80;58.40;;;;;;5461442;26;20216;-83
2024/04/25 08:06:24;;;;;;;18.98;4.28;;;9.00;52.00;;;;;;5492996;26;20450;-86
2024/04/25 08:08:50;;;;;;;18.90;4.30;;;9.00;30.70;;;;;;5461019;26;20294;-85
2024/04/25 08:11:16;;;;;;;18.43;3.70;;;9.10;21.10;;;;;;5461900;26;20985;-85
2024/04/25 08:13:41;;;;;;;19.90;4.03;;;9.10;1.00;;;;;;5461328;26;20256;-84
2024/04/25 08:16:07;;;;;;;27.90;4.33;;;9.00;4.30;;;;;;5493469;26;20208;-84
2024/04/25 08:18:33;;;;;;;27.03;4.70;;;8.90;9.90;;;;;;5492637;26;20319;-83
2024/04/25 08:21:01;;;;;;;19.53;4.83;;;8.80;11.20;;;;;;5463829;26;20227;-84
2024/04/25 08:23:27;;;;;;;23.60;5.32;;;8.80;20.00;;;;;;5465103;26;20224;-84
2024/04/25 08:25:52;;;;;;;16.03;3.47;;;8.70;9.00;;;;;;5464383;26;20246;-84
2024/04/25 08:28:18;;;;;;;19.03;4.47;;;8.60;7.80;;;;;;5497252;26;20210;-85
2024/04/25 08:30:44;;;;;;;21.13;4.70;;;8.60;3.90;;;;;;5496739;26;20588;-84
2024/04/25 08:33:10;;;;;;;16.80;4.15;;;8.60;3.80;;;;;;5496635;26;20524;-85
2024/04/25 08:35:36;;;;;;;17.83;4.90;;;8.60;6.00;;;;;;5496352;26;20615;-84
2024/04/25 08:38:02;;;;;;;17.80;3.90;;;8.60;1.00;;;;;;5496800;26;20454;-84
2024/04/25 08:40:28;;;;;;;20.48;4.45;;;8.70;7.20;;;;;;5464324;26;20693;-84
2024/04/25 08:42:54;;;;;;;18.33;3.47;;;8.70;5.20;;;;;;5497139;26;20257;-83
2024/04/25 08:45:24;;;;;;;19.08;4.55;;;8.70;1.00;;;;;;5464650;26;20518;-83
2024/04/25 08:47:52;;;;;;;15.82;2.60;;;8.80;2.90;;;;;;5496063;26;20247;-83
2024/04/25 08:50:20;;;;;;;17.40;3.15;;;8.90;1.00;;;;;;5496267;26;20247;-83
2024/04/25 08:52:47;;;;;;;27.08;4.32;;;8.90;1.00;;;;;;5464372;26;20273;-84
2024/04/25 08:55:13;;;;;;;25.92;3.20;;;9.00;1.00;;;;;;5496091;26;20204;-83
2024/04/25 08:57:39;;;;;;;16.85;3.80;;;9.10;1.00;;;;;;5464470;26;20585;-84
2024/04/25 09:00:06;;;;;;;15.68;2.90;;;9.20;1.00;;;;;;5496638;26;20522;-85
2024/04/25 09:02:35;;;;;;;17.08;2.50;;;9.30;1.00;;;;;;5496779;26;20212;-83
2024/04/25 09:05:01;;;;;;;16.27;3.30;;;9.20;1.00;;;;;;5496571;26;20212;-84
2024/04/25 09:07:27;;;;;;;20.52;2.90;;;9.20;1.00;;;;;;5464071;26;20212;-83
2024/04/25 09:09:56;;;;;;;16.83;2.80;;;9.30;1.00;;;;;;5463901;26;20256;-84
2024/04/25 09:12:25;;;;;;;15.30;3.05;;;9.30;1.00;;;;;;5495687;26;20204;-83
2024/04/25 09:14:51;;;;;;;23.02;3.00;;;9.30;1.00;;;;;;5464526;26;20247;-83
2024/04/25 09:17:17;;;;;;;13.67;2.47;;;9.30;1.00;;;;;;5495856;26;20240;-83
2024/04/25 09:19:43;;;;;;;16.10;2.77;;;9.30;1.00;;;;;;5463856;26;20212;-84
2024/04/25 09:22:10;;;;;;;14.63;2.92;;;9.40;1.00;;;;;;5463603;26;20228;-83
2024/04/25 09:24:36;;;;;;;16.85;3.70;;;9.50;1.00;;;;;;5495712;26;20215;-84
2024/04/25 09:27:01;;;;;;;15.77;3.17;;;9.60;1.00;;;;;;5495551;26;20807;-84
2024/04/25 09:29:30;;;;;;;15.10;2.40;;;9.80;1.00;;;;;;5463653;26;20212;-84
2024/04/25 09:31:56;;;;;;;15.32;2.88;;;10.00;1.00;;;;;;5494094;26;20221;-85
2024/04/25 09:34:22;;;;;;;15.88;2.70;;;10.30;1.00;;;;;;5463475;26;20251;-85
2024/04/25 09:36:48;;;;;;;17.60;2.80;;;10.40;1.00;;;;;;5464457;26;20215;-84
2024/04/25 09:39:14;;;;;;;15.73;2.70;;;10.50;1.00;;;;;;5495660;26;20449;-84
2024/04/25 09:41:44;;;;;;;20.67;3.00;;;10.60;1.00;;;;;;5496165;26;20243;-84
2024/04/25 09:44:09;;;;;;;15.30;2.50;;;10.60;1.00;;;;;;5463428;26;20670;-83
2024/04/25 09:46:43;;;;;;;16.90;2.80;;;10.60;1.00;;;;;;5463796;26;20696;-84
2024/04/25 09:49:10;;;;;;;23.17;3.35;;;10.60;1.00;;;;;;5496133;26;20199;-84
2024/04/25 09:51:51;;;;;;;14.65;3.08;;;10.50;1.00;;;;;;5496430;26;20220;-84
2024/04/25 09:54:25;;;;;;;15.27;2.92;;;10.30;1.00;;;;;;5496042;26;20204;-85
2024/04/25 09:56:57;;;;;;;22.23;2.47;;;10.10;1.00;;;;;;5464148;26;20232;-85
2024/04/25 09:59:39;;;;;;;15.88;2.13;;;10.20;1.00;;;;;;5463312;26;20296;-84
2024/04/25 10:02:11;;;;;;;16.55;3.25;;;10.20;1.00;;;;;;5494787;26;20309;-83
2024/04/25 10:04:37;;;;;;;20.52;2.78;;;10.30;1.00;;;;;;5462565;26;20212;-83
2024/04/25 10:07:03;;;;;;;16.17;3.63;;;10.30;1.00;;;;;;5496017;26;20254;-84
2024/04/25 10:09:29;;;;;;;17.40;2.80;;;10.40;1.00;;;;;;5494844;26;20437;-84
2024/04/25 10:11:58;;;;;;;20.20;2.63;;;10.50;1.00;;;;;;5494472;26;20216;-85
2024/04/25 10:14:28;;;;;;;15.18;2.45;;;10.80;1.00;;;;;;5463358;26;20334;-85
2024/04/25 10:16:53;;;;;;;17.83;2.80;;;11.00;1.00;;;;;;5462579;26;20212;-84
2024/04/25 10:19:19;;;;;;;14.60;2.13;;;11.00;1.00;;;;;;5495059;26;20250;-83
2024/04/25 10:21:46;;;;;;;16.17;2.13;;;11.00;1.00;;;;;;5494239;26;20493;-84
2024/04/25 10:24:15;;;;;;;17.33;2.50;;;11.10;1.00;;;;;;5462630;26;20549;-83
2024/04/25 10:26:47;;;;;;;14.50;2.30;;;11.10;1.00;;;;;;5462472;26;20220;-85
2024/04/25 10:29:13;;;;;;;19.60;3.53;;;11.20;1.00;;;;;;5495104;26;20204;-83
2024/04/25 10:31:40;;;;;;;15.10;2.00;;;11.20;1.00;;;;;;5462943;26;20255;-84
2024/04/25 10:34:06;;;;;;;16.65;2.60;;;11.10;1.00;;;;;;5463575;26;20639;-84
2024/04/25 10:36:33;;;;;;;13.85;2.05;;;11.10;1.00;;;;;;5494547;26;20204;-82
2024/04/25 10:38:59;;;;;;;15.30;2.35;;;11.00;1.00;;;;;;5593743;21;20804;-86
2024/04/25 10:41:38;;;;;;;23.13;2.05;;;11.00;1.00;;;;;;5427253;26;20221;-86
2024/04/25 10:44:05;;;;;;;14.30;1.80;;;10.90;1.00;;;;;;5459367;26;20197;-85
2024/04/25 10:46:32;;;;;;;15.20;2.55;;;10.80;1.00;;;;;;5427076;26;20213;-86
2024/04/25 10:48:58;;;;;;;13.90;2.00;;;10.90;1.00;;;;;;5397924;26;20217;-85
2024/04/25 10:51:24;;;;;;;14.20;2.17;;;10.90;1.00;;;;;;5458891;26;20305;-85
2024/04/25 10:53:49;;;;;;;15.35;1.85;;;11.00;1.00;;;;;;5427436;26;20493;-86
2024/04/25 10:56:16;;;;;;;17.70;2.97;;;10.90;1.00;;;;;;5459271;26;20205;-85
2024/04/25 10:58:52;;;;;;;17.60;1.80;;;11.00;1.00;;;;;;5427628;26;20865;-85
2024/04/25 11:01:29;;;;;;;15.02;2.08;;;11.20;1.00;;;;;;5459222;26;20217;-85
2024/04/25 11:04:00;;;;;;;18.20;2.58;;;11.10;1.00;;;;;;5460038;26;20200;-84
2024/04/25 11:06:27;;;;;;;19.27;2.65;;;11.00;1.00;;;;;;5427402;26;20221;-87
2024/04/25 11:08:56;;;;;;;18.08;1.90;;;11.10;1.00;;;;;;5427396;26;20317;-85
2024/04/25 11:11:22;;;;;;;15.45;2.08;;;11.20;1.00;;;;;;5427639;26;20229;-84
2024/04/25 11:13:49;;;;;;;16.50;2.20;;;11.30;1.00;;;;;;5457799;26;20213;-85
2024/04/25 11:16:16;;;;;;;14.07;1.95;;;11.40;1.00;;;;;;5426219;26;20491;-86
2024/04/25 11:18:43;;;;;;;14.95;1.77;;;11.60;1.00;;;;;;5426349;26;20218;-85
2024/04/25 11:21:09;;;;;;;13.63;1.75;;;12.30;1.00;;;;;;5457722;26;20574;-85
2024/04/25 11:23:35;;;;;;;16.27;2.50;;;12.90;1.00;;;;;;5457495;26;20594;-85
2024/04/25 11:26:03;;;;;;;14.53;2.03;;;13.40;1.00;;;;;;5426035;26;20217;-86
2024/04/25 11:28:29;;;;;;;15.68;2.45;;;13.80;1.00;;;;;;5426355;26;20841;-85
2024/04/25 11:30:54;;;;;;;14.00;1.53;;;13.70;1.00;;;;;;5459449;26;20221;-86
2024/04/25 11:33:23;;;;;;;17.33;3.03;;;13.50;1.00;;;;;;5425678;26;20221;-86
2024/04/25 11:35:49;;;;;;;13.73;2.00;;;13.30;1.00;;;;;;5426737;26;20247;-85
2024/04/25 11:38:17;;;;;;;18.48;2.00;;;13.40;1.00;;;;;;5458890;26;20213;-86
2024/04/25 11:40:48;;;;;;;14.57;2.35;;;13.70;1.00;;;;;;5425680;26;20275;-85
2024/04/25 11:43:18;;;;;;;20.75;2.85;;;13.70;1.00;;;;;;5426032;26;20556;-86
2024/04/25 11:45:46;;;;;;;13.77;2.10;;;13.80;99.90;;;;;;5426334;26;20753;-86
2024/04/25 11:48:17;;;;;;;16.73;2.15;;;14.00;99.90;;;;;;5457970;26;20213;-86
2024/04/25 11:50:44;;;;;;;14.70;1.67;;;14.10;99.90;;;;;;5457331;26;20328;-86
2024/04/25 11:53:10;;;;;;;13.15;1.75;;;13.90;99.90;;;;;;5425321;26;20233;-86
2024/04/25 11:55:36;;;;;;;14.27;1.93;;;13.70;99.90;;;;;;5460349;26;20279;-86
2024/04/25 11:58:03;;;;;;;14.75;2.28;;;13.50;99.90;;;;;;5460808;26;20205;-87
2024/04/25 12:00:29;;;;;;;15.52;2.15;;;13.50;99.90;;;;;;5430150;26;20749;-86
2024/04/25 12:02:54;;;;;;;14.20;1.47;;;13.50;99.90;;;;;;5461302;26;20240;-86
2024/04/25 12:05:22;;;;;;;14.20;2.20;;;13.50;99.90;;;;;;5429260;26;20221;-86
2024/04/25 12:07:49;;;;;;;13.80;1.60;;;13.50;99.90;;;;;;5461216;26;20206;-86
2024/04/25 12:10:16;;;;;;;14.87;2.13;;;13.60;99.90;;;;;;5462271;26;20774;-86
2024/04/25 12:12:41;;;;;;;14.18;1.55;;;13.60;99.90;;;;;;5430207;26;20450;-85
2024/04/25 12:15:07;;;;;;;15.80;1.70;;;13.50;99.90;;;;;;5429556;26;20221;-85
2024/04/25 12:17:33;;;;;;;16.48;1.85;;;13.10;99.90;;;;;;5429569;26;20612;-86
2024/04/25 12:20:00;;;;;;;14.43;1.50;;;13.10;99.90;;;;;;5430173;26;20221;-86
2024/04/25 12:22:28;;;;;;;13.20;1.52;;;13.10;99.90;;;;;;5429160;26;20550;-86
2024/04/25 12:24:57;;;;;;;12.63;1.02;;;13.10;99.90;;;;;;5461155;26;20248;-86
2024/04/25 12:27:23;;;;;;;15.93;1.13;;;13.00;99.90;;;;;;5461535;26;20287;-85
2024/04/25 12:29:49;;;;;;;11.70;1.07;;;13.00;99.90;;;;;;5462192;26;20678;-85
2024/04/25 12:32:15;;;;;;;12.07;1.07;;;13.10;99.90;;;;;;5427773;26;20232;-86
2024/04/25 12:34:43;;;;;;;12.20;1.37;;;13.10;99.90;;;;;;5462150;26;20206;-87
2024/04/25 12:37:09;;;;;;;12.50;1.20;;;13.20;99.90;;;;;;5430693;26;20206;-86
2024/04/25 12:39:40;;;;;;;14.40;1.50;;;13.20;99.90;;;;;;5462180;26;20294;-86
2024/04/25 12:42:06;;;;;;;12.00;1.08;;;13.20;99.90;;;;;;5462656;26;20801;-86
2024/04/25 12:44:32;;;;;;;15.80;1.37;;;13.30;99.90;;;;;;5461279;26;20213;-86
2024/04/25 12:46:58;;;;;;;12.70;1.50;;;13.20;99.90;;;;;;5429903;26;20439;-87
2024/04/25 12:49:33;;;;;;;18.40;2.67;;;13.10;99.90;;;;;;5430183;26;20225;-85
2024/04/25 12:51:59;;;;;;;14.30;2.10;;;13.00;99.90;;;;;;5430070;26;20255;-85
2024/04/25 12:54:25;;;;;;;13.70;1.30;;;13.00;99.90;;;;;;5430408;26;20252;-86